Latest Weather Observations for Cairns

IDQ60801

Issued at 9:32 pm EST Thursday 25 August 2016 (issued every 30 minutes, with the page automatically refreshed every 10 minutes)

About weather observations | Map of weather stations | Latest weather observations for QLD | Other Formats
Station Details ID: 031011 Name: CAIRNS AERO Lat: -16.87 Lon: 145.75 Height: 2.22 m
Data from the previous 72 hours. | See also: Recent months at Cairns
Date/Time
EST
Temp
°C
App
Temp
°C
Dew
Point
°C
Rel
Hum
%
Delta-T
°C
Wind Press
QNH
hPa
Press
MSL
hPa
Rain since
9am
mm
Dir  Spd
km/h
Gust
km/h
Spd
kts
Gust
kts
25/09:00pm 23.4 23.0 18.9 76 2.9 S 19 26 10 14 1013.7 1013.7 0.0
25/08:30pm 23.3 23.3 19.0 77 2.7 S 17 26 9 14 1013.3 1013.3 0.0
25/08:00pm 23.4 23.8 19.1 77 2.7 S 15 22 8 12 1013.1 1013.1 0.0
25/07:30pm 23.4 23.6 19.3 78 2.6 SSE 17 26 9 14 1012.6 1012.6 0.0
25/07:00pm 23.5 22.6 19.0 76 2.9 SSE 22 30 12 16 1012.2 1012.2 0.0
25/06:30pm 23.6 23.2 19.3 77 2.7 SSE 20 28 11 15 1011.8 1011.8 0.0
25/06:00pm 24.0 23.8 19.7 77 2.8 SSE 20 26 11 14 1011.4 1011.4 0.0
25/05:30pm 24.2 24.4 20.1 78 2.7 SSE 19 28 10 15 1011.1 1011.1 0.0
25/05:00pm 24.8 24.5 20.3 76 2.9 SE 22 28 12 15 1010.6 1010.6 0.0
25/04:30pm 25.1 25.6 20.1 74 3.2 SSE 17 20 9 11 1010.2 1010.2 0.0
25/04:00pm 25.5 26.1 20.3 73 3.4 SSE 17 22 9 12 1009.8 1009.8 0.0
25/03:30pm 26.0 26.0 20.1 70 3.8 SE 20 26 11 14 1009.6 1009.6 0.0
25/03:00pm 26.3 26.6 20.4 70 3.9 SE 19 24 10 13 1009.6 1009.6 0.0
25/02:30pm 26.7 26.8 20.3 68 4.2 SE 20 28 11 15 1009.8 1009.8 0.0
25/02:00pm 27.1 27.9 20.7 68 4.2 SE 17 22 9 12 1009.9 1009.9 0.0
25/01:30pm 27.2 27.3 20.3 66 4.5 SE 20 30 11 16 1010.2 1010.2 0.0
25/01:00pm 27.5 28.1 20.3 65 4.7 ESE 17 24 9 13 1010.4 1010.4 0.0
25/12:30pm 27.5 27.8 20.3 65 4.7 SE 19 26 10 14 1010.7 1010.7 0.0
25/12:00pm 27.3 28.2 20.9 68 4.2 SE 17 26 9 14 1011.1 1011.1 0.0
25/11:30am 26.9 29.7 21.6 72 3.5 ESE 9 15 5 8 1011.5 1011.5 0.0
25/11:00am 26.4 28.7 21.4 74 3.3 E 11 15 6 8 1011.8 1011.8 0.0
25/10:30am 26.1 28.1 21.5 76 3.1 SE 13 17 7 9 1012.1 1012.1 0.0
25/10:00am 25.9 28.4 21.8 78 2.7 SSE 11 17 6 9 1012.3 1012.3 0.0
25/09:30am 25.7 27.9 21.8 79 2.6 SSE 13 17 7 9 1012.4 1012.4 0.0
25/09:00am 25.3 27.1 21.8 81 2.3 SSE 15 24 8 13 1012.4 1012.4 0.0
25/08:30am 25.0 27.9 21.7 82 2.2 SSE 9 13 5 7 1012.4 1012.4 0.0
25/08:00am 25.1 28.3 21.6 81 2.3 NNW 7 9 4 5 1012.1 1012.1 0.0
25/07:30am 24.2 26.0 21.1 83 2.0 S 13 19 7 10 1012.0 1012.0 0.0
25/07:00am 23.5 25.9 21.6 89 1.3 SSE 11 15 6 8 1011.6 1011.6 0.0
25/06:30am 22.7 27.2 21.5 93 0.8 CALM 0 0 0 0 1011.2 1011.2 0.0
25/06:00am 22.8 26.5 21.4 92 0.9 SSE 4 11 2 6 1010.7 1010.7 0.0
25/05:30am 23.2 26.1 21.8 92 0.9 SSE 9 11 5 6 1010.5 1010.5 0.0
25/05:00am 23.2 26.1 21.8 92 0.9 SE 9 11 5 6 1010.1 1010.1 0.0
25/04:30am 23.3 26.9 22.1 93 0.8 SE 6 7 3 4 1009.9 1009.9 0.0
25/04:00am 23.1 27.4 21.9 93 0.8 W 2 11 1 6 1009.8 1009.8 0.0
25/03:30am 23.0 27.8 22.2 95 0.5 CALM 0 0 0 0 1009.8 1009.8 0.0
25/03:00am 22.9 26.4 21.9 94 0.7 WNW 6 7 3 4 1010.0 1010.0 0.0
25/02:30am 22.5 25.7 21.7 95 0.5 W 7 7 4 4 1010.1 1010.1 0.0
25/02:00am 22.6 27.1 21.6 94 0.7 CALM 0 7 0 4 1010.3 1010.3 0.0
25/01:30am 22.5 27.1 21.7 95 0.5 CALM 0 0 0 0 1010.4 1010.4 0.0
25/01:00am 22.8 27.4 21.8 94 0.7 CALM 0 0 0 0 1010.7 1010.7 0.0
25/12:30am 22.8 27.4 21.8 94 0.7 CALM 0 0 0 0 1010.9 1010.9 0.0
25/12:00am 23.2 27.4 21.8 92 0.9 NNE 2 7 1 4 1011.2 1011.2 0.0
 
Date/Time
EST
Temp
°C
App
Temp
°C
Dew
Point
°C
Rel
Hum
%
Delta-T
°C
Wind Press
QNH
hPa
Press
MSL
hPa
Rain since
9am
mm
Dir  Spd
km/h
Gust
km/h
Spd
kts
Gust
kts
24/11:30pm 23.4 27.1 22.2 93 0.8 NW 6 9 3 5 1011.4 1011.4 0.0
24/11:00pm 23.7 28.7 22.5 93 0.8 CALM 0 0 0 0 1011.6 1011.6 0.0
24/10:30pm 23.2 27.9 22.0 93 0.8 CALM 0 2 0 1 1011.6 1011.6 0.0
24/10:00pm 23.4 27.2 22.4 94 0.7 W 6 9 3 5 1011.5 1011.5 0.0
24/09:30pm 23.8 28.5 21.9 89 1.3 CALM 0 0 0 0 1011.4 1011.4 0.0
24/09:00pm 24.7 28.2 22.2 86 1.7 W 7 9 4 5 1011.3 1011.3 0.0
24/08:30pm 24.8 29.4 22.5 87 1.5 W 2 7 1 4 1011.1 1011.1 0.0
24/08:00pm 24.7 28.3 22.4 87 1.5 W 7 9 4 5 1010.9 1010.9 0.0
24/07:30pm 24.6 27.9 22.5 88 1.4 WNW 9 11 5 6 1010.7 1010.7 0.0
24/07:00pm 24.6 27.8 22.3 87 1.5 WNW 9 11 5 6 1010.2 1010.2 0.0
24/06:30pm 24.7 28.4 22.6 88 1.4 NW 7 9 4 5 1009.7 1009.7 0.0
24/06:00pm 24.8 28.2 22.7 88 1.4 NNW 9 13 5 7 1009.3 1009.3 0.0
24/05:30pm 25.2 28.1 22.5 85 1.8 N 11 17 6 9 1009.1 1009.1 0.0
24/05:00pm 25.6 28.1 22.5 83 2.1 NNW 13 17 7 9 1009.0 1009.0 0.0
24/04:30pm 26.2 28.5 22.7 81 2.4 N 15 19 8 10 1008.8 1008.8 0.0
24/04:00pm 26.7 29.5 23.0 80 2.5 NNW 13 17 7 9 1008.8 1008.8 0.0
24/03:30pm 26.2 27.8 22.1 78 2.7 N 17 22 9 12 1008.9 1008.9 0.0
24/03:00pm 26.5 28.9 22.3 78 2.8 N 13 17 7 9 1009.0 1009.0 0.0
24/02:30pm 26.8 28.0 22.2 76 3.1 NNE 19 24 10 13 1009.1 1009.1 0.0
24/02:00pm 27.4 28.4 21.7 71 3.8 NNE 19 28 10 15 1009.6 1009.6 0.0
24/01:30pm 27.1 28.4 22.3 75 3.2 NNE 19 26 10 14 1010.1 1010.1 0.0
24/01:00pm 28.0 29.2 21.5 67 4.3 NNE 17 24 9 13 1010.3 1010.3 0.0
24/12:30pm 27.3 28.1 21.3 69 4.0 NNE 19 26 10 14 1010.7 1010.7 0.0
24/12:00pm 27.0 28.1 21.3 71 3.8 NNE 17 20 9 11 1011.2 1011.2 0.0
24/11:30am 26.6 28.4 20.4 69 4.1 N 11 19 6 10 1011.8 1011.8 0.0
24/11:00am 27.6 28.8 20.7 66 4.6 NNE 15 20 8 11 1012.2 1012.2 0.0
24/10:30am 27.2 28.8 20.8 68 4.2 NNE 13 17 7 9 1012.7 1012.7 0.0
24/10:00am 27.5 29.1 20.8 67 4.4 NNE 13 15 7 8 1013.0 1013.0 0.0
24/09:30am 27.0 29.7 20.6 68 4.2 WNW 7 13 4 7 1013.2 1013.2 0.0
24/09:00am 25.5 28.9 20.1 72 3.5 E 2 7 1 4 1013.3 1013.3 0.0
24/08:30am 24.6 28.0 20.1 76 2.9 SE 2 7 1 4 1013.1 1013.1 0.0
24/08:00am 23.5 26.7 19.8 80 2.4 NNW 2 6 1 3 1012.9 1012.9 0.0
24/07:30am 21.6 24.9 19.9 90 1.1 ESE 2 6 1 3 1012.5 1012.5 0.0
24/07:00am 19.8 21.8 19.1 96 0.4 SE 7 9 4 5 1012.1 1012.1 0.0
24/06:30am 18.8 20.7 18.5 98 0.2 WSW 6 9 3 5 1011.8 1011.8 0.0
24/06:00am 18.9 22.0 18.6 98 0.2 CALM 0 0 0 0 1011.4 1011.4 0.0
24/05:30am 18.8 21.7 18.3 97 0.3 CALM 0 0 0 0 1010.9 1010.9 0.0
24/05:00am 19.3 22.6 19.0 98 0.2 CALM 0 0 0 0 1010.5 1010.5 0.0
24/04:30am 19.1 22.2 18.6 97 0.3 CALM 0 0 0 0 1010.3 1010.3 0.0
24/04:00am 19.1 22.3 18.8 98 0.2 CALM 0 0 0 0 1010.1 1010.1 0.0
24/03:30am 18.7 21.6 18.2 97 0.3 CALM 0 0 0 0 1010.1 1010.1 0.0
24/03:00am 19.5 22.8 19.0 97 0.3 CALM 0 0 0 0 1010.0 1010.0 0.0
24/02:30am 19.6 22.9 19.1 97 0.3 CALM 0 0 0 0 1010.3 1010.3 0.0
24/02:00am 19.4 21.8 18.9 97 0.3 N 4 9 2 5 1010.5 1010.5 0.0
24/01:30am 19.8 23.2 19.3 97 0.3 CALM 0 0 0 0 1010.9 1010.9 0.0
24/01:00am 20.2 23.7 19.5 96 0.4 CALM 0 0 0 0 1011.3 1011.3 0.0
24/12:30am 20.1 23.5 19.4 96 0.4 CALM 0 0 0 0 1011.7 1011.7 0.0
24/12:00am 19.9 23.2 19.2 96 0.4 CALM 0 0 0 0 1012.0 1012.0 0.0
 
Date/Time
EST
Temp
°C
App
Temp
°C
Dew
Point
°C
Rel
Hum
%
Delta-T
°C
Wind Press
QNH
hPa
Press
MSL
hPa
Rain since
9am
mm
Dir  Spd
km/h
Gust
km/h
Spd
kts
Gust
kts
23/11:30pm 20.4 24.0 19.7 96 0.4 CALM 0 0 0 0 1011.9 1011.9 0.0
23/11:00pm 20.3 23.7 19.3 94 0.6 CALM 0 0 0 0 1012.1 1012.1 0.0
23/10:30pm 20.8 24.4 19.8 94 0.6 CALM 0 0 0 0 1012.2 1012.2 0.0
23/10:00pm 21.2 25.0 20.2 94 0.6 CALM 0 0 0 0 1012.3 1012.3 0.0
23/09:30pm 21.4 25.1 20.0 92 0.9 CALM 0 0 0 0 1012.2 1012.2 0.0
23/09:00pm 22.0 26.0 20.5 91 1.0 CALM 0 0 0 0 1012.2 1012.2 0.0
23/08:30pm 22.1 26.0 20.4 90 1.1 CALM 0 0 0 0 1011.8 1011.8 0.0
23/08:00pm 22.2 26.1 20.3 89 1.2 CALM 0 0 0 0 1011.6 1011.6 0.0
23/07:30pm 22.1 25.1 20.0 88 1.3 NE 4 7 2 4 1011.3 1011.3 0.0
23/07:00pm 22.4 24.8 20.1 87 1.5 NNE 7 7 4 4 1010.9 1010.9 0.0
23/06:30pm 22.9 25.4 19.9 83 1.9 NNE 6 7 3 4 1010.5 1010.5 0.0
23/06:00pm 23.3 25.2 19.7 80 2.3 N 9 11 5 6 1010.2 1010.2 0.0
23/05:30pm 24.4 26.3 19.7 75 3.0 NNE 9 13 5 7 1009.9 1009.9 0.0
23/05:00pm 24.9 26.5 19.9 74 3.2 NE 11 15 6 8 1009.6 1009.6 0.0
23/04:30pm 25.2 26.1 18.4 66 4.3 NE 11 15 6 8 1009.5 1009.5 0.0
23/04:00pm 25.9 26.7 19.1 66 4.4 NNE 13 15 7 8 1009.4 1009.4 0.0
23/03:30pm 25.9 27.2 19.3 67 4.2 NNE 11 19 6 10 1009.5 1009.5 0.0
23/03:00pm 26.3 27.2 19.2 65 4.6 NNE 13 17 7 9 1009.6 1009.6 0.0
23/02:30pm 26.0 26.7 18.9 65 4.5 NNE 13 19 7 10 1009.8 1009.8 0.0
23/02:00pm 25.9 26.8 19.3 67 4.2 N 13 19 7 10 1010.2 1010.2 0.0
23/01:30pm 26.0 27.0 19.4 67 4.3 NNE 13 17 7 9 1010.7 1010.7 0.0
23/01:00pm 26.0 27.1 19.6 68 4.1 NNE 13 19 7 10 1011.0 1011.0 0.0
23/12:30pm 26.2 27.1 19.3 65 4.4 N 13 17 7 9 1011.6 1011.6 0.0
23/12:00pm 26.4 27.1 18.8 63 4.9 N 13 17 7 9 1012.1 1012.1 0.0
23/11:30am 26.6 27.0 18.2 60 5.3 NE 13 17 7 9 1012.6 1012.6 0.0
23/11:00am 26.7 27.5 19.1 63 4.9 NE 13 15 7 8 1013.0 1013.0 0.0
23/10:30am 26.7 28.4 18.0 59 5.5 ENE 6 9 3 5 1013.4 1013.4 0.0
23/10:00am 26.7 28.1 18.6 61 5.2 E 9 13 5 7 1013.6 1013.6 0.0
23/09:30am 25.4 26.3 17.6 62 4.9 SE 9 15 5 8 1013.7 1013.7 0.0
23/09:00am 24.2 24.6 18.2 69 3.8 SE 13 15 7 8 1014.0 1014.0 0.0
23/08:30am 23.0 25.6 18.5 76 2.8 WNW 2 7 1 4 1013.8 1013.8 0.0
23/08:00am 20.7 22.4 18.5 87 1.4 WNW 7 7 4 4 1013.6 1013.6 0.0
23/07:30am 19.6 21.4 18.3 92 0.8 W 6 11 3 6 1013.4 1013.4 0.0
23/07:00am 18.4 20.3 17.6 95 0.5 W 4 7 2 4 1013.2 1013.2 0.0
23/06:30am 18.0 19.3 17.2 95 0.5 W 6 7 3 4 1012.8 1012.8 0.0
23/06:00am 18.2 20.0 17.4 95 0.5 W 4 9 2 5 1012.6 1012.6 0.0
23/05:30am 19.1 20.6 17.6 91 0.9 SW 6 11 3 6 1012.3 1012.3 0.0
23/05:00am 19.3 18.8 17.8 91 0.9 SE 17 19 9 10 1012.0 1012.0 0.0
23/04:30am 18.8 19.8 17.8 94 0.6 SE 9 15 5 8 1012.0 1012.0 0.0
23/04:00am 19.5 20.6 18.0 91 0.9 S 9 15 5 8 1011.9 1011.9 0.0
23/03:30am 19.3 20.3 17.8 91 0.9 SSE 9 17 5 9 1012.1 1012.1 0.0
23/03:00am 19.4 21.5 18.1 92 0.8 S 4 9 2 5 1012.2 1012.2 0.0
23/02:30am 18.5 21.3 17.9 96 0.4 CALM 0 0 0 0 1012.3 1012.3 0.0
23/02:00am 19.1 20.7 17.8 92 0.8 WNW 6 7 3 4 1012.6 1012.6 0.0
23/01:30am 20.4 22.2 18.3 88 1.3 NW 6 7 3 4 1012.7 1012.7 0.0
23/01:00am 21.1 22.6 18.9 87 1.4 SSE 9 15 5 8 1012.9 1012.9 0.0
23/12:30am 20.5 21.1 18.6 89 1.2 ESE 13 17 7 9 1013.2 1013.2 0.0
23/12:00am 21.5 22.4 18.5 83 1.9 SSE 11 15 6 8 1013.3 1013.3 0.0
 
Date/Time
EST
Temp
°C
App
Temp
°C
Dew
Point
°C
Rel
Hum
%
Delta-T
°C
Wind Press
QNH
hPa
Press
MSL
hPa
Rain since
9am
mm
Dir  Spd
km/h
Gust
km/h
Spd
kts
Gust
kts
22/11:30pm 21.9 22.8 18.5 81 2.1 S 11 15 6 8 1013.5 1013.5 0.0
22/11:00pm 21.6 23.0 18.6 83 1.9 SSE 9 15 5 8 1013.7 1013.7 0.0
22/10:30pm 22.1 23.5 18.7 81 2.1 S 9 13 5 7 1013.7 1013.7 0.0
22/10:00pm 21.9 23.3 18.7 82 2.0 S 9 17 5 9 1013.5 1013.5 0.0

Other Formats:

Comma delimited format used in spreadsheet applications
http://www.bom.gov.au/fwo/IDQ60801/IDQ60801.94287.axf

JavaScript Object Notation format (JSON) in row-major order
http://www.bom.gov.au/fwo/IDQ60801/IDQ60801.94287.json